Time;durP1;ratioP1;P1;durP2;ratioP2;P2;SDS_P1;SDS_P2;PMS_P1;PMS_P2;Temp;Humidity;BMP_temperature;BMP_pressure;BME280_temperature;BME280_humidity;BME280_pressure;Samples;Min_cycle;Max_cycle;Signal;HPM_P1;HPM_P2
2022/03/26 00:00:19;;;;;;;0.60;0.60;;;;;;;9.46;47.75;101159.25;104044;1280;108669;-76
2022/03/26 00:03:08;;;;;;;0.60;0.60;;;;;;;9.50;47.65;101151.41;104054;1279;137937;-76
2022/03/26 00:05:37;;;;;;;0.60;0.60;;;;;;;9.44;48.25;101148.98;104481;1280;107763;-74
2022/03/26 00:08:05;;;;;;;0.60;0.60;;;;;;;9.31;48.47;101148.04;104007;1282;95234;-75
2022/03/26 00:10:36;;;;;;;0.60;0.60;;;;;;;9.26;48.78;101150.40;103848;1279;137707;-76
2022/03/26 00:13:05;;;;;;;0.50;0.50;;;;;;;9.22;48.95;101148.48;103948;1281;109413;-76
2022/03/26 00:15:33;;;;;;;0.50;0.50;;;;;;;9.15;49.35;101144.83;104029;1279;137939;-76
2022/03/26 00:18:02;;;;;;;0.50;0.50;;;;;;;9.10;49.67;101145.57;103894;1280;107929;-76
2022/03/26 00:20:29;;;;;;;0.50;0.50;;;;;;;9.04;49.63;101141.01;104040;1280;95756;-76
2022/03/26 00:22:57;;;;;;;0.50;0.50;;;;;;;9.01;50.32;101138.55;104099;1279;138219;-76
2022/03/26 00:25:25;;;;;;;0.50;0.50;;;;;;;9.00;50.26;101139.44;103925;1280;109258;-75
2022/03/26 00:27:53;;;;;;;0.60;0.60;;;;;;;8.95;50.39;101129.91;103869;1280;138341;-76
2022/03/26 00:30:21;;;;;;;0.50;0.50;;;;;;;8.95;50.54;101125.13;103975;1279;108072;-73
2022/03/26 00:32:49;;;;;;;0.60;0.60;;;;;;;8.97;50.25;101122.82;103927;1279;95808;-75
2022/03/26 00:35:18;;;;;;;0.60;0.60;;;;;;;9.00;50.30;101121.73;103849;1281;137434;-76
2022/03/26 00:37:46;;;;;;;0.60;0.60;;;;;;;8.98;50.40;101122.45;103936;1281;110714;-75
2022/03/26 00:40:14;;;;;;;0.60;0.60;;;;;;;8.95;50.40;101119.64;104071;1281;138551;-74
2022/03/26 00:42:42;;;;;;;0.60;0.60;;;;;;;8.90;50.97;101117.04;103948;1281;107809;-76
2022/03/26 00:45:10;;;;;;;0.60;0.60;;;;;;;8.94;50.73;101110.45;104035;1281;137987;-76
2022/03/26 00:47:38;;;;;;;0.60;0.60;;;;;;;8.93;51.13;101117.70;103805;1282;95662;-76
2022/03/26 00:50:06;;;;;;;0.60;0.60;;;;;;;8.92;51.09;101124.29;103837;1281;107696;-76
2022/03/26 00:52:35;;;;;;;0.70;0.70;;;;;;;8.87;51.38;101121.66;104017;1281;137914;-76
2022/03/26 00:55:04;;;;;;;0.60;0.60;;;;;;;8.82;51.55;101119.92;103981;1281;106747;-75
2022/03/26 00:57:32;;;;;;;0.60;0.60;;;;;;;8.79;51.63;101119.05;103815;1281;138074;-76
2022/03/26 01:00:00;;;;;;;0.60;0.60;;;;;;;8.81;51.60;101119.23;104031;1281;95205;-75
2022/03/26 01:02:28;;;;;;;0.60;0.60;;;;;;;8.79;51.57;101113.22;104186;1281;108761;-76
2022/03/26 01:04:56;;;;;;;0.60;0.60;;;;;;;8.81;51.54;101110.19;103952;1282;137857;-75
2022/03/26 01:07:26;;;;;;;0.70;0.70;;;;;;;8.76;52.00;101103.33;104135;1281;107809;-76
2022/03/26 01:09:54;;;;;;;0.60;0.60;;;;;;;8.72;52.06;101103.52;103782;1282;138580;-75
2022/03/26 01:12:23;;;;;;;0.60;0.60;;;;;;;8.70;52.32;101105.85;104119;1281;95327;-76
2022/03/26 01:14:53;;;;;;;0.60;0.60;;;;;;;8.69;52.33;101103.91;103628;1282;108015;-76
2022/03/26 01:17:21;;;;;;;0.50;0.50;;;;;;;8.68;52.54;101100.20;103893;1281;137645;-76
2022/03/26 01:19:50;;;;;;;0.60;0.60;;;;;;;8.62;52.98;101095.81;103939;1281;106753;-75
2022/03/26 01:22:20;;;;;;;0.60;0.60;;;;;;;8.58;52.87;101090.17;103720;1282;138373;-75
2022/03/26 01:24:48;;;;;;;0.60;0.60;;;;;;;8.58;53.14;101086.65;103882;1281;95499;-76
2022/03/26 01:27:15;;;;;;;0.60;0.60;;;;;;;8.56;53.37;101088.06;103848;1281;157369;-75
2022/03/26 01:29:44;;;;;;;0.60;0.60;;;;;;;8.51;53.29;101087.05;104155;1281;97238;-75
2022/03/26 01:32:12;;;;;;;0.60;0.60;;;;;;;8.51;53.53;101089.69;103993;1281;107835;-75
2022/03/26 01:34:40;;;;;;;0.60;0.60;;;;;;;8.60;53.11;101088.92;103754;1281;138178;-76
2022/03/26 01:37:08;;;;;;;0.60;0.60;;;;;;;8.61;53.27;101090.51;103861;1281;95333;-77
2022/03/26 01:39:36;;;;;;;0.60;0.60;;;;;;;8.63;53.17;101086.96;103771;1280;137981;-76
2022/03/26 01:42:06;;;;;;;0.60;0.60;;;;;;;8.66;53.30;101083.58;103822;1281;98083;-76
2022/03/26 01:44:37;;;;;;;0.70;0.70;;;;;;;8.65;53.38;101084.81;104072;1280;107749;-76
2022/03/26 01:47:05;;;;;;;0.60;0.60;;;;;;;8.63;53.38;101078.29;103972;1280;137788;-77
2022/03/26 01:49:35;;;;;;;0.60;0.60;;;;;;;8.61;53.60;101075.29;103879;1281;96595;-76
2022/03/26 01:52:04;;;;;;;0.70;0.70;;;;;;;8.58;53.52;101074.41;103813;1280;138352;-77
2022/03/26 01:54:32;;;;;;;0.60;0.60;;;;;;;8.59;53.79;101074.23;104067;1280;98864;-75
2022/03/26 01:57:01;;;;;;;0.70;0.70;;;;;;;8.61;53.56;101065.20;103988;1280;138040;-75
2022/03/26 01:59:29;;;;;;;0.60;0.60;;;;;;;8.58;53.77;101062.73;103844;1281;95280;-75
2022/03/26 02:01:57;;;;;;;0.70;0.70;;;;;;;8.56;53.91;101063.10;103821;1281;95303;-76
2022/03/26 02:04:26;;;;;;;0.60;0.60;;;;;;;8.56;53.77;101058.69;104073;1279;137629;-75
2022/03/26 02:06:55;;;;;;;0.60;0.60;;;;;;;8.53;54.04;101057.81;104099;1281;98153;-76
2022/03/26 02:09:23;;;;;;;0.70;0.70;;;;;;;8.48;54.29;101053.95;103823;1279;138483;-75
2022/03/26 02:11:51;;;;;;;0.60;0.60;;;;;;;8.47;54.31;101046.35;104140;1279;95227;-76
2022/03/26 02:14:19;;;;;;;0.60;0.60;;;;;;;8.52;54.27;101048.98;104070;1280;95695;-75
2022/03/26 02:16:47;;;;;;;0.60;0.60;;;;;;;8.50;54.34;101041.73;103998;1281;137750;-76
2022/03/26 02:19:16;;;;;;;0.60;0.60;;;;;;;8.50;54.65;101040.67;104037;1281;98766;-76
2022/03/26 02:21:47;;;;;;;0.60;0.60;;;;;;;8.49;54.70;101042.62;103787;1281;138156;-76
2022/03/26 02:24:16;;;;;;;0.60;0.60;;;;;;;8.48;54.66;101036.81;104092;1281;95668;-76
2022/03/26 02:26:44;;;;;;;0.60;0.60;;;;;;;8.50;54.62;101031.47;103968;1281;95326;-76
2022/03/26 02:29:12;;;;;;;0.60;0.60;;;;;;;8.46;54.92;101030.25;104031;1281;138533;-77
2022/03/26 02:31:40;;;;;;;0.60;0.60;;;;;;;8.43;54.90;101020.52;104080;1281;98249;-77
2022/03/26 02:34:10;;;;;;;0.60;0.60;;;;;;;8.44;55.11;101015.39;103876;1281;137751;-77
2022/03/26 02:36:38;;;;;;;0.60;0.60;;;;;;;8.42;55.03;101012.56;103936;1282;95505;-77
2022/03/26 02:39:06;;;;;;;0.60;0.60;;;;;;;8.41;55.27;101006.20;103794;1281;137899;-75
2022/03/26 02:41:35;;;;;;;0.60;0.60;;;;;;;8.37;55.28;101007.64;104007;1282;108402;-76
2022/03/26 02:44:04;;;;;;;0.70;0.70;;;;;;;8.40;55.20;101007.80;103924;1281;97696;-77
2022/03/26 02:46:32;;;;;;;0.60;0.60;;;;;;;8.39;55.34;100999.84;103853;1281;138520;-76
2022/03/26 02:49:00;;;;;;;0.60;0.60;;;;;;;8.40;55.49;100999.48;103831;1282;95820;-76
2022/03/26 02:51:28;;;;;;;0.60;0.60;;;;;;;8.42;55.44;100997.70;103850;1282;138078;-75
2022/03/26 02:53:56;;;;;;;0.60;0.60;;;;;;;8.42;55.50;100994.69;103785;1282;108697;-75
2022/03/26 02:56:24;;;;;;;0.60;0.60;;;;;;;8.40;55.57;100981.96;103899;1282;98135;-75
2022/03/26 02:58:52;;;;;;;0.60;0.60;;;;;;;8.36;55.85;100976.70;103979;1281;137694;-76
2022/03/26 03:01:23;;;;;;;0.70;0.70;;;;;;;8.34;56.14;100977.77;103610;1281;95715;-75
2022/03/26 03:03:51;;;;;;;0.50;0.50;;;;;;;8.35;56.23;100974.57;103741;1281;138210;-76
2022/03/26 03:06:19;;;;;;;0.70;0.70;;;;;;;8.36;56.14;100971.03;103953;1281;108717;-75
2022/03/26 03:08:48;;;;;;;0.60;0.60;;;;;;;8.38;56.14;100967.66;103752;1282;98557;-77
2022/03/26 03:11:17;;;;;;;0.60;0.60;;;;;;;8.41;56.23;100968.34;103925;1281;137786;-76
2022/03/26 03:13:46;;;;;;;0.60;0.60;;;;;;;8.41;56.54;100964.45;104023;1281;96104;-76
2022/03/26 03:16:14;;;;;;;0.70;0.70;;;;;;;8.37;56.62;100961.65;103818;1281;138284;-76
2022/03/26 03:18:42;;;;;;;0.60;0.60;;;;;;;8.40;56.36;100959.48;103937;1281;108686;-76
2022/03/26 03:21:14;;;;;;;0.50;0.50;;;;;;;8.43;56.39;100954.50;103990;1281;138481;-77
2022/03/26 03:23:43;;;;;;;0.60;0.60;;;;;;;8.45;56.47;100950.63;103876;1281;107682;-75
2022/03/26 03:26:11;;;;;;;0.60;0.60;;;;;;;8.45;56.45;100949.05;104181;1281;95333;-76
2022/03/26 03:28:39;;;;;;;0.50;0.50;;;;;;;8.46;56.39;100943.71;103824;1282;137572;-76
2022/03/26 03:31:07;;;;;;;0.60;0.60;;;;;;;8.46;56.57;100941.08;103875;1281;109171;-75
2022/03/26 03:33:36;;;;;;;0.60;0.60;;;;;;;8.48;56.67;100943.71;104025;1281;138494;-76
2022/03/26 03:36:05;;;;;;;0.60;0.60;;;;;;;8.50;56.66;100943.17;103952;1282;107890;-76
2022/03/26 03:38:34;;;;;;;0.50;0.50;;;;;;;8.52;56.27;100942.43;103853;1282;96353;-76
2022/03/26 03:41:02;;;;;;;0.60;0.60;;;;;;;8.54;56.36;100944.90;104559;1282;138253;-78
2022/03/26 03:43:30;;;;;;;0.60;0.60;;;;;;;8.60;56.32;100942.00;103872;1281;108617;-76
2022/03/26 03:45:58;;;;;;;0.60;0.60;;;;;;;8.62;56.26;100939.33;104085;1281;137956;-75
2022/03/26 03:48:27;;;;;;;0.70;0.70;;;;;;;8.61;56.25;100938.64;103830;1282;107932;-75
2022/03/26 03:50:55;;;;;;;0.60;0.60;;;;;;;8.62;56.52;100941.09;103795;1282;95332;-76
2022/03/26 03:53:23;;;;;;;0.60;0.60;;;;;;;8.63;56.37;100942.34;104216;1281;137568;-75
2022/03/26 03:55:51;;;;;;;0.60;0.60;;;;;;;8.68;56.31;100939.63;104023;1282;108954;-76
2022/03/26 03:58:19;;;;;;;0.50;0.50;;;;;;;8.67;56.09;100936.27;103932;1282;137799;-77
2022/03/26 04:00:48;;;;;;;0.60;0.60;;;;;;;8.66;55.93;100932.21;104298;1280;107849;-74
2022/03/26 04:03:17;;;;;;;0.60;0.60;;;;;;;8.63;56.07;100935.96;104126;1281;138440;-76
2022/03/26 04:05:45;;;;;;;0.60;0.60;;;;;;;8.61;56.31;100931.91;104301;1281;95312;-75
2022/03/26 04:08:13;;;;;;;0.60;0.60;;;;;;;8.58;56.41;100924.32;104348;1279;108492;-75
2022/03/26 04:10:41;;;;;;;0.60;0.60;;;;;;;8.56;56.34;100921.52;104183;1281;136978;-74
2022/03/26 04:13:09;;;;;;;0.60;0.60;;;;;;;8.59;56.34;100916.53;104307;1281;106324;-75
2022/03/26 04:15:37;;;;;;;0.60;0.60;;;;;;;8.57;56.50;100913.54;103950;1281;138648;-75
2022/03/26 04:18:06;;;;;;;0.60;0.60;;;;;;;8.56;56.40;100908.77;104317;1281;95267;-73
2022/03/26 04:20:35;;;;;;;0.60;0.60;;;;;;;8.50;56.54;100906.89;104227;1281;108802;-75
2022/03/26 04:23:03;;;;;;;0.60;0.60;;;;;;;8.45;56.73;100904.44;103937;1279;138528;-76
2022/03/26 04:25:32;;;;;;;0.60;0.60;;;;;;;8.46;56.75;100897.17;104115;1281;107852;-75
2022/03/26 04:28:01;;;;;;;0.60;0.60;;;;;;;8.46;56.78;100893.81;106506;1281;137911;-74
2022/03/26 04:30:29;;;;;;;0.70;0.70;;;;;;;8.43;56.91;100887.63;103951;1282;96651;-75
2022/03/26 04:32:57;;;;;;;0.60;0.60;;;;;;;8.42;56.82;100884.45;104112;1281;107169;-75
2022/03/26 04:35:25;;;;;;;0.60;0.60;;;;;;;8.44;56.77;100881.79;104061;1279;138127;-75
2022/03/26 04:37:55;;;;;;;0.60;0.60;;;;;;;8.44;57.09;100880.36;104089;1279;107817;-74
2022/03/26 04:40:26;;;;;;;0.60;0.60;;;;;;;8.44;56.67;100883.54;104216;1279;138115;-77
2022/03/26 04:42:55;;;;;;;0.60;0.60;;;;;;;8.47;56.87;100882.66;104348;1279;95223;-76
2022/03/26 04:45:23;;;;;;;0.60;0.60;;;;;;;8.46;56.94;100885.14;104042;1282;137930;-75
2022/03/26 04:47:51;;;;;;;0.60;0.60;;;;;;;8.50;56.81;100890.42;104190;1281;99370;-75
2022/03/26 04:50:19;;;;;;;0.60;0.60;;;;;;;8.47;57.11;100887.61;104212;1280;106309;-75
2022/03/26 04:52:48;;;;;;;0.60;0.60;;;;;;;8.44;57.07;100892.58;103887;1280;138479;-74
2022/03/26 04:55:18;;;;;;;0.60;0.60;;;;;;;8.47;57.25;100887.62;104096;1280;95813;-76
2022/03/26 04:57:48;;;;;;;0.60;0.60;;;;;;;8.45;57.08;100883.55;104055;1281;138399;-74
2022/03/26 05:00:17;;;;;;;0.60;0.60;;;;;;;8.41;57.08;100882.69;104513;1279;99138;-76
2022/03/26 05:02:46;;;;;;;0.60;0.60;;;;;;;8.43;57.10;100884.09;104334;1281;109508;-76
2022/03/26 05:05:14;;;;;;;0.60;0.60;;;;;;;8.44;57.03;100880.20;104221;1279;138535;-76
2022/03/26 05:07:45;;;;;;;0.60;0.60;;;;;;;8.47;57.09;100878.40;104117;1279;95261;-76
2022/03/26 05:10:29;;;;;;;0.60;0.60;;;;;;;8.49;57.19;100879.63;104213;1279;138468;-74
2022/03/26 05:12:58;;;;;;;0.60;0.60;;;;;;;8.50;57.09;100872.19;104317;1279;98649;-74
2022/03/26 05:15:27;;;;;;;0.60;0.60;;;;;;;8.54;57.14;100868.96;104195;1281;138716;-75
2022/03/26 05:17:57;;;;;;;0.70;0.70;;;;;;;8.53;57.15;100865.79;106792;1279;94056;-75
2022/03/26 05:20:25;;;;;;;0.60;0.60;;;;;;;8.52;57.27;100861.73;104395;1279;95181;-76
2022/03/26 05:22:53;;;;;;;0.60;0.60;;;;;;;8.57;57.26;100862.03;103763;1279;138831;-75
2022/03/26 05:25:21;;;;;;;0.60;0.60;;;;;;;8.66;56.94;100855.73;104218;1279;98377;-76
2022/03/26 05:27:51;;;;;;;0.60;0.60;;;;;;;8.72;56.86;100853.91;104167;1280;138781;-75
2022/03/26 05:30:20;;;;;;;0.70;0.70;;;;;;;8.75;56.98;100851.20;104865;1281;95725;-75
2022/03/26 05:32:48;;;;;;;0.60;0.60;;;;;;;8.78;56.71;100843.73;103912;1282;95253;-74
2022/03/26 05:35:17;;;;;;;0.60;0.60;;;;;;;8.77;57.09;100842.52;104196;1280;137504;-75
2022/03/26 05:37:51;;;;;;;0.60;0.60;;;;;;;8.83;57.01;100836.08;104273;1281;99366;-76
2022/03/26 05:40:21;;;;;;;0.60;0.60;;;;;;;8.90;56.76;100830.83;103994;1279;138498;-76
2022/03/26 05:42:51;;;;;;;0.50;0.50;;;;;;;8.95;56.91;100829.02;104242;1279;95247;-77
2022/03/26 05:45:20;;;;;;;0.50;0.50;;;;;;;8.94;57.15;100826.39;104150;1279;138175;-76
2022/03/26 05:47:49;;;;;;;0.60;0.60;;;;;;;8.89;57.39;100820.42;104172;1279;108787;-74
2022/03/26 05:50:17;;;;;;;0.60;0.60;;;;;;;8.91;57.43;100820.23;103936;1279;99478;-76
2022/03/26 05:52:46;;;;;;;0.60;0.60;;;;;;;8.95;57.51;100818.23;104104;1279;137862;-76
2022/03/26 05:55:16;;;;;;;0.50;0.50;;;;;;;9.00;57.28;100821.33;104107;1281;95760;-74
2022/03/26 05:57:44;;;;;;;0.50;0.50;;;;;;;9.06;57.37;100826.58;104146;1279;137949;-76
2022/03/26 06:00:15;;;;;;;0.60;0.60;;;;;;;9.11;57.08;100832.88;104036;1279;108718;-76
2022/03/26 06:02:46;;;;;;;0.50;0.50;;;;;;;9.21;56.93;100831.34;104476;1279;97279;-76
2022/03/26 06:05:16;;;;;;;0.70;0.70;;;;;;;9.27;56.92;100831.44;103941;1280;137870;-76
2022/03/26 06:07:44;;;;;;;0.60;0.60;;;;;;;9.28;57.01;100831.43;104181;1280;95636;-76
2022/03/26 06:10:12;;;;;;;0.50;0.50;;;;;;;9.37;56.95;100830.77;103961;1279;138887;-76
2022/03/26 06:12:44;;;;;;;0.60;0.60;;;;;;;9.44;56.85;100833.30;104126;1279;108710;-76
2022/03/26 06:15:13;;;;;;;0.60;0.60;;;;;;;9.47;56.72;100830.45;104274;1279;139069;-75
2022/03/26 06:18:02;;;;;;;0.50;0.50;;;;;;;9.52;56.73;100823.98;104108;1282;107833;-76
2022/03/26 06:20:31;;;;;;;0.50;0.50;;;;;;;9.60;56.33;100817.84;104165;1280;96263;-75
2022/03/26 06:22:59;;;;;;;0.50;0.50;;;;;;;9.66;56.47;100813.84;104156;1281;138020;-75
2022/03/26 06:25:32;;;;;;;0.50;0.50;;;;;;;9.68;56.32;100818.77;104207;1282;109284;-78
2022/03/26 06:28:00;;;;;;;0.50;0.50;;;;;;;9.70;56.26;100816.77;104162;1279;138126;-75
2022/03/26 06:30:28;;;;;;;0.50;0.50;;;;;;;9.79;56.27;100810.27;104274;1279;107771;-76
2022/03/26 06:32:56;;;;;;;0.50;0.50;;;;;;;9.87;56.24;100809.59;104192;1279;95852;-75
2022/03/26 06:35:24;;;;;;;0.50;0.50;;;;;;;9.94;56.04;100805.05;103908;1280;137947;-76
2022/03/26 06:37:53;;;;;;;0.50;0.40;;;;;;;10.02;55.98;100798.86;103991;1280;108718;-76
2022/03/26 06:40:21;;;;;;;0.50;0.50;;;;;;;10.09;56.06;100794.33;104129;1279;138326;-73
2022/03/26 06:42:49;;;;;;;0.40;0.40;;;;;;;10.13;56.00;100798.86;103847;1281;107959;-75
2022/03/26 06:45:18;;;;;;;0.50;0.50;;;;;;;10.22;56.09;100798.70;103514;1281;138414;-75
2022/03/26 06:47:46;;;;;;;0.50;0.50;;;;;;;10.29;56.03;100794.84;104079;1280;95503;-75
2022/03/26 06:50:14;;;;;;;0.50;0.40;;;;;;;10.37;55.87;100788.86;104161;1280;107528;-73
2022/03/26 06:52:42;;;;;;;0.50;0.50;;;;;;;10.45;55.70;100794.40;104013;1280;138340;-74
2022/03/26 06:55:10;;;;;;;0.50;0.50;;;;;;;10.54;55.61;100796.71;104112;1280;107875;-76
2022/03/26 06:57:38;;;;;;;0.50;0.40;;;;;;;10.65;55.36;100788.48;104090;1280;139162;-72
2022/03/26 07:00:10;;;;;;;0.50;0.50;;;;;;;10.75;55.24;100793.25;104078;1280;95356;-75
2022/03/26 07:02:39;;;;;;;0.40;0.40;;;;;;;10.84;54.88;100795.02;104193;1279;108971;-76
2022/03/26 07:05:08;;;;;;;0.50;0.40;;;;;;;10.95;54.63;100794.62;104095;1280;138885;-76
2022/03/26 07:07:36;;;;;;;0.50;0.40;;;;;;;11.03;54.34;100794.27;104147;1280;107718;-76
2022/03/26 07:10:05;;;;;;;0.50;0.50;;;;;;;11.16;54.14;100790.80;104062;1280;138357;-72
2022/03/26 07:12:33;;;;;;;0.50;0.40;;;;;;;11.25;53.65;100787.21;104142;1279;95279;-74
2022/03/26 07:15:00;;;;;;;0.50;0.40;;;;;;;11.33;53.45;100791.82;103779;1281;138646;-76
2022/03/26 07:17:28;;;;;;;0.40;0.40;;;;;;;11.38;53.21;100787.44;104296;1279;97322;-75
2022/03/26 07:19:56;;;;;;;0.50;0.30;;;;;;;11.36;53.05;100788.73;104320;1279;107623;-75
2022/03/26 07:22:31;;;;;;;0.50;0.40;;;;;;;11.36;52.97;100778.23;104132;1279;137021;-76
2022/03/26 07:24:59;;;;;;;0.40;0.40;;;;;;;11.41;52.93;100766.75;104244;1279;95141;-75
2022/03/26 07:27:45;;;;;;;0.40;0.40;;;;;;;11.52;52.81;100769.50;103870;1280;138341;-74
2022/03/26 07:30:13;;;;;;;0.40;0.40;;;;;;;11.73;52.31;100775.56;104165;1279;98417;-73
2022/03/26 07:32:41;;;;;;;0.40;0.30;;;;;;;11.82;51.79;100767.70;104250;1279;107896;-75
2022/03/26 07:35:09;;;;;;;0.40;0.40;;;;;;;11.82;51.70;100773.92;103922;1280;139172;-75
2022/03/26 07:37:39;;;;;;;0.40;0.30;;;;;;;11.86;51.91;100767.59;104142;1280;95976;-76
2022/03/26 07:40:10;;;;;;;0.50;0.40;;;;;;;11.97;51.57;100770.73;104143;1281;138023;-76
2022/03/26 07:42:38;;;;;;;0.40;0.30;;;;;;;12.04;51.36;100765.55;104289;1280;97096;-76
2022/03/26 07:45:07;;;;;;;0.40;0.30;;;;;;;12.02;51.03;100772.55;103922;1281;138097;-74
2022/03/26 07:47:38;;;;;;;0.40;0.40;;;;;;;12.02;51.10;100766.33;104167;1281;95144;-77
2022/03/26 07:50:07;;;;;;;0.40;0.30;;;;;;;12.07;51.08;100768.88;104217;1281;95243;-76
2022/03/26 07:52:35;;;;;;;0.40;0.30;;;;;;;12.13;50.83;100777.79;104177;1279;138079;-76
2022/03/26 07:55:03;;;;;;;0.40;0.30;;;;;;;12.17;50.81;100770.55;104236;1279;99545;-75
2022/03/26 07:57:32;;;;;;;0.40;0.30;;;;;;;12.25;50.81;100768.92;104099;1280;138073;-74
2022/03/26 08:00:00;;;;;;;0.40;0.30;;;;;;;12.30;50.51;100773.59;104147;1280;95712;-76
2022/03/26 08:02:28;;;;;;;0.40;0.30;;;;;;;12.42;50.49;100766.49;104215;1280;96144;-73
2022/03/26 08:04:56;;;;;;;0.40;0.30;;;;;;;12.59;50.21;100767.42;104199;1281;138687;-74
2022/03/26 08:07:24;;;;;;;0.40;0.30;;;;;;;12.66;49.82;100765.10;104128;1280;97895;-75
2022/03/26 08:09:52;;;;;;;0.40;0.30;;;;;;;12.73;49.73;100764.72;103986;1280;138174;-76
2022/03/26 08:12:20;;;;;;;0.40;0.30;;;;;;;12.77;49.48;100759.07;104265;1280;95736;-76
2022/03/26 08:14:48;;;;;;;0.40;0.30;;;;;;;12.82;49.49;100756.23;104028;1280;95649;-75
2022/03/26 08:17:17;;;;;;;0.40;0.30;;;;;;;12.89;49.42;100757.82;104102;1279;136762;-75
2022/03/26 08:19:46;;;;;;;0.40;0.40;;;;;;;12.99;49.56;100760.20;104045;1279;97217;-77
2022/03/26 08:22:14;;;;;;;0.40;0.30;;;;;;;13.12;49.25;100760.50;104084;1279;137978;-75
2022/03/26 08:24:43;;;;;;;0.40;0.30;;;;;;;13.22;49.14;100758.24;104130;1279;95410;-75
2022/03/26 08:27:12;;;;;;;0.40;0.30;;;;;;;13.39;48.84;100760.04;103951;1279;138107;-75
2022/03/26 08:29:39;;;;;;;0.40;0.30;;;;;;;13.51;48.59;100756.48;103930;1280;108941;-74
2022/03/26 08:32:08;;;;;;;0.40;0.30;;;;;;;13.66;48.41;100754.89;104060;1280;98285;-75
2022/03/26 08:34:36;;;;;;;0.40;0.30;;;;;;;13.90;48.17;100755.52;104060;1280;138098;-76
2022/03/26 08:37:04;;;;;;;0.40;0.30;;;;;;;14.17;47.46;100755.46;104236;1279;95343;-75
2022/03/26 08:39:31;;;;;;;0.40;0.30;;;;;;;14.33;46.87;100752.02;103966;1280;138806;-75
2022/03/26 08:41:59;;;;;;;0.40;0.20;;;;;;;14.46;46.84;100748.69;103923;1280;108739;-76
2022/03/26 08:44:27;;;;;;;0.40;0.20;;;;;;;14.66;46.52;100747.98;104098;1280;98342;-75
2022/03/26 08:46:57;;;;;;;0.40;0.30;;;;;;;14.66;46.49;100744.42;104042;1282;138009;-77
2022/03/26 08:49:28;;;;;;;0.40;0.20;;;;;;;14.66;46.79;100747.48;104210;1279;95530;-77
2022/03/26 08:51:56;;;;;;;0.40;0.20;;;;;;;14.66;46.32;100750.84;104227;1279;137907;-75
2022/03/26 08:54:24;;;;;;;0.40;0.20;;;;;;;14.60;46.50;100741.42;104012;1280;108714;-75
2022/03/26 08:56:52;;;;;;;0.40;0.20;;;;;;;14.65;46.81;100743.22;104076;1280;98341;-76
2022/03/26 08:59:23;;;;;;;0.40;0.20;;;;;;;14.64;47.34;100747.89;103983;1280;137801;-75
2022/03/26 09:01:51;;;;;;;0.40;0.20;;;;;;;14.53;47.97;100749.70;104118;1280;96311;-75
2022/03/26 09:04:19;;;;;;;0.40;0.20;;;;;;;14.43;48.68;100750.27;104378;1279;138021;-75
2022/03/26 09:06:50;;;;;;;0.40;0.20;;;;;;;14.32;48.93;100760.48;104010;1279;111640;-76
2022/03/26 09:09:18;;;;;;;0.40;0.20;;;;;;;14.24;49.18;100765.22;104294;1279;139142;-75
2022/03/26 09:11:47;;;;;;;0.40;0.20;;;;;;;14.20;49.33;100764.09;104027;1280;108403;-76
2022/03/26 09:14:15;;;;;;;0.40;0.20;;;;;;;14.16;49.20;100767.81;104413;1279;95167;-75
2022/03/26 09:16:43;;;;;;;0.40;0.20;;;;;;;14.10;49.33;100769.11;104102;1279;138629;-75
2022/03/26 09:19:12;;;;;;;0.40;0.20;;;;;;;14.09;49.69;100770.56;104268;1280;108707;-75
2022/03/26 09:21:40;;;;;;;0.40;0.20;;;;;;;14.03;49.89;100767.21;104110;1279;138282;-74
2022/03/26 09:24:08;;;;;;;0.40;0.20;;;;;;;13.96;49.91;100767.46;104233;1279;108842;-75
2022/03/26 09:26:36;;;;;;;0.40;0.20;;;;;;;13.97;49.95;100774.56;104202;1279;95213;-74
2022/03/26 09:29:04;;;;;;;0.40;0.20;;;;;;;14.01;49.99;100770.85;104295;1279;137974;-75
2022/03/26 09:31:34;;;;;;;0.40;0.20;;;;;;;13.98;49.68;100774.71;104304;1279;108703;-75
2022/03/26 09:34:02;;;;;;;0.40;0.20;;;;;;;13.95;49.72;100769.42;103966;1281;138322;-76
2022/03/26 09:36:29;;;;;;;0.40;0.30;;;;;;;13.94;50.04;100769.48;104231;1280;108258;-75
2022/03/26 09:38:58;;;;;;;0.40;0.20;;;;;;;13.96;50.21;100769.42;104361;1279;95650;-74
2022/03/26 09:41:27;;;;;;;0.40;0.20;;;;;;;13.95;50.08;100774.63;104303;1279;137693;-75
2022/03/26 09:43:56;;;;;;;0.40;0.20;;;;;;;13.87;50.30;100768.29;104251;1280;109545;-76
2022/03/26 09:46:24;;;;;;;0.40;0.30;;;;;;;13.85;50.19;100775.66;104250;1279;138522;-74
2022/03/26 09:48:52;;;;;;;0.40;0.30;;;;;;;13.88;50.47;100772.89;104138;1282;108223;-75
2022/03/26 09:51:23;;;;;;;0.40;0.20;;;;;;;13.89;50.50;100775.55;104299;1279;140286;-76
2022/03/26 09:53:53;;;;;;;0.40;0.20;;;;;;;13.80;50.78;100777.45;104392;1282;95559;-75
2022/03/26 09:56:21;;;;;;;0.40;0.30;;;;;;;13.75;50.93;100782.26;104069;1279;109302;-76
2022/03/26 09:58:58;;;;;;;0.40;0.20;;;;;;;13.72;51.31;100789.30;104181;1282;138519;-75
2022/03/26 10:01:27;;;;;;;0.40;0.20;;;;;;;13.68;51.47;100792.84;103944;1282;106477;-74
2022/03/26 10:04:12;;;;;;;0.40;0.30;;;;;;;13.66;52.02;100792.36;104288;1280;138133;-75
2022/03/26 10:06:54;;;;;;;0.40;0.20;;;;;;;13.52;52.59;100796.02;104433;1280;95239;-73
2022/03/26 10:09:47;;;;;;;0.40;0.30;;;;;;;13.39;53.53;100799.27;104171;1279;138140;-76
2022/03/26 10:12:16;;;;;;;0.40;0.30;;;;;;;13.30;54.04;100802.77;103859;1283;99472;-76
2022/03/26 10:14:50;;;;;;;0.40;0.30;;;;;;;13.25;54.47;100799.90;104381;1279;107785;-75
2022/03/26 10:17:35;;;;;;;0.40;0.20;;;;;;;13.20;55.06;100802.16;104120;1280;138571;-77
2022/03/26 10:20:12;;;;;;;0.40;0.20;;;;;;;13.24;55.38;100802.60;104051;1280;95292;-77
2022/03/26 10:22:49;;;;;;;0.40;0.20;;;;;;;13.25;55.24;100809.52;103977;1282;138018;-76
2022/03/26 10:25:21;;;;;;;0.40;0.20;;;;;;;13.24;55.48;100810.27;104370;1279;99558;-76
2022/03/26 10:27:56;;;;;;;0.40;0.30;;;;;;;13.21;55.83;100815.14;104212;1280;138046;-77
2022/03/26 10:33:23;;;;;;;0.40;0.20;;;;;;;12.93;56.68;100811.52;104229;1280;139139;-75
2022/03/26 10:35:56;;;;;;;0.40;0.20;;;;;;;12.83;57.23;100817.88;104267;1282;108848;-75
2022/03/26 10:38:38;;;;;;;0.40;0.20;;;;;;;12.71;57.31;100823.74;104175;1279;96240;-76
2022/03/26 10:41:07;;;;;;;0.40;0.30;;;;;;;12.72;57.17;100819.80;104179;1279;138751;-75
2022/03/26 10:43:37;;;;;;;0.40;0.30;;;;;;;12.74;56.93;100824.37;104113;1279;95668;-75
2022/03/26 10:46:07;;;;;;;0.40;0.20;;;;;;;12.75;56.48;100825.23;104345;1281;138392;-76
2022/03/26 10:48:37;;;;;;;0.40;0.20;;;;;;;12.68;56.40;100820.61;104001;1281;108669;-76
2022/03/26 10:51:08;;;;;;;0.40;0.20;;;;;;;12.71;56.18;100821.79;105013;1280;138253;-75
2022/03/26 10:53:42;;;;;;;0.40;0.30;;;;;;;12.66;55.98;100823.86;104093;1279;107703;-75
2022/03/26 10:56:12;;;;;;;0.40;0.30;;;;;;;12.63;56.05;100829.15;104100;1280;96912;-75
2022/03/26 10:58:43;;;;;;;0.40;0.30;;;;;;;12.58;56.10;100828.91;104581;1279;138336;-74
2022/03/26 11:01:12;;;;;;;0.40;0.30;;;;;;;12.51;56.06;100834.45;104381;1280;108730;-73
2022/03/26 11:03:41;;;;;;;0.40;0.20;;;;;;;12.50;55.91;100835.02;104298;1280;139483;-77
2022/03/26 11:06:11;;;;;;;0.40;0.30;;;;;;;12.49;55.95;100837.17;104256;1280;107742;-75
2022/03/26 11:08:41;;;;;;;0.40;0.20;;;;;;;12.57;55.74;100834.48;104423;1279;95633;-75
2022/03/26 11:11:10;;;;;;;0.40;0.30;;;;;;;12.53;55.66;100833.85;104121;1280;138097;-75
2022/03/26 11:14:01;;;;;;;0.40;0.30;;;;;;;12.48;55.56;100833.82;104056;1281;109103;-74
2022/03/26 11:16:32;;;;;;;0.40;0.30;;;;;;;12.57;55.49;100836.77;104001;1280;138421;-74
2022/03/26 11:19:24;;;;;;;0.40;0.30;;;;;;;12.64;55.39;100831.23;104300;1279;108257;-74
2022/03/26 11:22:15;;;;;;;0.40;0.30;;;;;;;12.71;55.14;100835.85;104033;1279;140203;-75
2022/03/26 11:24:46;;;;;;;0.40;0.30;;;;;;;12.67;54.91;100832.03;104321;1279;95370;-74
2022/03/26 11:27:20;;;;;;;0.40;0.30;;;;;;;12.67;54.95;100832.41;104228;1279;138288;-73
2022/03/26 11:30:22;;;;;;;0.40;0.20;;;;;;;12.68;54.95;100828.98;104247;1279;98311;-75